createdAt,value
2022-08-18T00:01:14.756Z,20.60
2022-08-18T00:03:56.329Z,20.60
2022-08-18T00:06:29.791Z,20.50
2022-08-18T00:09:01.677Z,20.60
2022-08-18T00:11:40.484Z,20.60
2022-08-18T00:14:11.528Z,20.60
2022-08-18T00:16:42.611Z,20.60
2022-08-18T00:19:11.114Z,20.60
2022-08-18T00:21:39.431Z,20.50
2022-08-18T00:24:09.032Z,20.50
2022-08-18T00:26:37.266Z,20.50
2022-08-18T00:29:05.456Z,20.60
2022-08-18T00:31:33.903Z,20.40
2022-08-18T00:34:01.955Z,20.40
2022-08-18T00:36:31.732Z,20.40
2022-08-18T00:38:59.825Z,20.40
2022-08-18T00:41:29.510Z,20.40
2022-08-18T00:43:59.106Z,20.40
2022-08-18T00:46:30.222Z,20.40
2022-08-18T00:48:59.345Z,20.40
2022-08-18T00:51:31.203Z,20.40
2022-08-18T00:54:04.288Z,20.50
2022-08-18T00:56:39.761Z,20.40
2022-08-18T00:59:12.546Z,20.40
2022-08-18T01:01:42.648Z,20.40
2022-08-18T01:04:15.587Z,20.40
2022-08-18T01:06:48.716Z,20.40
2022-08-18T01:09:18.589Z,20.40
2022-08-18T01:11:48.210Z,20.30
2022-08-18T01:14:18.276Z,20.30
2022-08-18T01:17:04.925Z,20.30
2022-08-18T01:19:50.141Z,20.30
2022-08-18T01:22:25.017Z,20.30
2022-08-18T01:25:15.912Z,20.30
2022-08-18T01:27:44.742Z,20.30
2022-08-18T01:30:18.324Z,20.20
2022-08-18T01:32:47.032Z,20.20
2022-08-18T01:35:18.233Z,20.20
2022-08-18T01:37:46.393Z,20.20
2022-08-18T01:41:11.166Z,20.10
2022-08-18T01:43:06.038Z,20.10
2022-08-18T01:45:34.637Z,20.20
2022-08-18T01:48:05.136Z,20.30
2022-08-18T01:50:35.291Z,20.30
2022-08-18T01:53:05.540Z,20.30
2022-08-18T01:55:35.552Z,20.30
2022-08-18T01:58:03.619Z,20.30
2022-08-18T02:00:32.405Z,20.30
2022-08-18T02:03:02.318Z,20.30
2022-08-18T02:05:35.862Z,20.20
2022-08-18T02:08:04.914Z,20.20
2022-08-18T02:10:34.547Z,20.20
2022-08-18T02:13:03.346Z,20.20
2022-08-18T02:15:31.453Z,20.10
2022-08-18T02:17:59.589Z,20.10
2022-08-18T02:20:27.807Z,20.10
2022-08-18T02:22:55.787Z,20.20
2022-08-18T02:25:24.041Z,20.10
2022-08-18T02:27:53.802Z,20.00
2022-08-18T02:30:22.214Z,20.10
2022-08-18T02:32:50.327Z,20.10
2022-08-18T02:35:18.660Z,20.10
2022-08-18T02:37:48.599Z,20.00
2022-08-18T02:40:20.558Z,20.00
2022-08-18T02:42:49.763Z,20.00
2022-08-18T02:45:19.572Z,20.00
2022-08-18T02:47:53.296Z,20.00
2022-08-18T02:50:22.069Z,19.90
2022-08-18T02:52:50.562Z,19.90
2022-08-18T02:55:18.703Z,19.90
2022-08-18T02:57:48.940Z,19.80
2022-08-18T03:00:20.181Z,19.90
2022-08-18T03:02:53.543Z,19.70
2022-08-18T03:05:21.882Z,19.80
2022-08-18T03:07:51.185Z,19.70
2022-08-18T03:10:31.500Z,19.80
2022-08-18T03:13:04.239Z,19.50
2022-08-18T03:15:34.098Z,19.70
2022-08-18T03:18:02.450Z,19.60
2022-08-18T03:20:31.618Z,19.70
2022-08-18T03:23:04.748Z,19.70
2022-08-18T03:25:38.757Z,19.80
2022-08-18T03:28:07.086Z,19.80
2022-08-18T03:30:36.812Z,19.90
2022-08-18T03:33:05.213Z,19.90
2022-08-18T03:35:35.585Z,19.80
2022-08-18T03:38:04.109Z,19.90
2022-08-18T03:40:32.352Z,19.90
2022-08-18T03:43:49.877Z,19.90
2022-08-18T03:46:02.161Z,20.00
2022-08-18T03:48:30.304Z,20.00
2022-08-18T03:51:05.468Z,20.00
2022-08-18T03:53:34.977Z,19.90
2022-08-18T03:56:03.489Z,20.00
2022-08-18T03:58:31.617Z,19.90
2022-08-18T04:01:03.695Z,19.90
2022-08-18T04:03:33.817Z,20.00
2022-08-18T04:06:01.923Z,19.80
2022-08-18T04:08:30.081Z,19.80
2022-08-18T04:10:58.042Z,19.80
2022-08-18T04:13:26.076Z,19.90
2022-08-18T04:15:54.152Z,19.90
2022-08-18T04:18:23.720Z,19.90
2022-08-18T04:20:58.900Z,19.90
2022-08-18T04:23:27.843Z,19.90
2022-08-18T04:25:58.087Z,20.00
2022-08-18T04:28:26.286Z,19.90
2022-08-18T04:30:57.011Z,19.90
2022-08-18T04:33:28.088Z,20.00
2022-08-18T04:35:58.384Z,19.80
2022-08-18T04:38:26.425Z,19.80
2022-08-18T04:40:54.518Z,19.80
2022-08-18T04:43:22.701Z,19.50
2022-08-18T04:45:51.535Z,19.40
2022-08-18T04:48:19.597Z,19.40
2022-08-18T04:50:52.234Z,19.50
2022-08-18T04:53:37.506Z,19.40
2022-08-18T04:56:06.155Z,19.40
2022-08-18T04:58:35.619Z,19.40
2022-08-18T05:01:03.693Z,19.40
2022-08-18T05:03:31.842Z,19.50
2022-08-18T05:06:04.864Z,19.50
2022-08-18T05:08:32.973Z,19.60
2022-08-18T05:11:04.077Z,19.50
2022-08-18T05:13:32.698Z,19.50
2022-08-18T05:16:18.011Z,19.60
2022-08-18T05:18:46.489Z,19.60
2022-08-18T05:21:16.251Z,19.60
2022-08-18T05:23:45.024Z,19.70
2022-08-18T05:26:14.709Z,19.70
2022-08-18T05:28:42.995Z,19.70
2022-08-18T05:31:13.951Z,19.80
2022-08-18T05:33:42.692Z,20.00
2022-08-18T05:36:28.173Z,19.80
2022-08-18T05:39:03.973Z,20.00
2022-08-18T05:41:35.857Z,19.90
2022-08-18T05:44:05.220Z,20.10
2022-08-18T05:46:41.417Z,20.00
2022-08-18T05:49:09.797Z,20.10
2022-08-18T05:51:43.203Z,20.20
2022-08-18T05:54:29.462Z,20.30
2022-08-18T05:57:02.505Z,20.20
2022-08-18T05:59:34.229Z,20.40
2022-08-18T06:02:13.113Z,20.50
2022-08-18T06:04:48.503Z,20.60
2022-08-18T06:07:25.152Z,20.50
2022-08-18T06:09:55.276Z,20.50
2022-08-18T06:12:30.411Z,20.60
2022-08-18T06:15:06.284Z,20.70
2022-08-18T06:17:55.906Z,20.70
2022-08-18T06:20:31.039Z,20.70
2022-08-18T06:23:18.619Z,20.80
2022-08-18T06:25:57.777Z,20.70
2022-08-18T06:28:31.049Z,20.70
2022-08-18T06:31:05.372Z,20.80
2022-08-18T06:33:47.899Z,20.80
2022-08-18T06:36:33.861Z,20.90
2022-08-18T06:39:09.468Z,20.90
2022-08-18T06:41:42.464Z,20.90
2022-08-18T06:44:13.819Z,21.00
2022-08-18T06:46:46.901Z,21.00
2022-08-18T06:49:22.826Z,21.10
2022-08-18T06:51:50.906Z,21.10
2022-08-18T06:54:31.109Z,21.30
2022-08-18T06:57:00.778Z,21.20
2022-08-18T06:59:31.297Z,21.30
2022-08-18T07:02:02.311Z,21.30
2022-08-18T07:05:05.547Z,21.30
2022-08-18T07:07:50.831Z,21.50
2022-08-18T07:10:39.256Z,21.70
2022-08-18T07:13:15.695Z,21.70
2022-08-18T07:15:45.809Z,21.80
2022-08-18T07:18:17.382Z,21.90
2022-08-18T07:20:48.247Z,21.90
2022-08-18T07:23:33.964Z,22.00
2022-08-18T07:26:09.657Z,21.90
2022-08-18T07:28:41.722Z,21.90
2022-08-18T07:31:18.161Z,21.80
2022-08-18T07:33:56.167Z,21.90
2022-08-18T07:36:29.844Z,22.00
2022-08-18T07:39:04.257Z,22.30
2022-08-18T07:41:41.225Z,22.10
2022-08-18T07:44:20.374Z,22.20
2022-08-18T07:46:59.842Z,22.40
2022-08-18T07:50:15.807Z,22.50
2022-08-18T07:52:47.425Z,22.60
2022-08-18T07:55:32.381Z,22.60
2022-08-18T07:58:20.254Z,22.60
2022-08-18T08:00:59.287Z,22.70
2022-08-18T08:03:38.522Z,22.50
2022-08-18T08:06:11.850Z,22.50
2022-08-18T08:08:49.693Z,22.50
2022-08-18T08:11:30.027Z,22.60
2022-08-18T08:14:26.143Z,22.70
2022-08-18T08:17:05.972Z,22.70
2022-08-18T08:20:02.809Z,22.70
2022-08-18T08:22:39.757Z,22.70
2022-08-18T08:25:42.788Z,22.70
2022-08-18T08:28:13.411Z,22.70
2022-08-18T08:30:52.540Z,22.70
2022-08-18T08:33:34.011Z,22.90
2022-08-18T08:36:10.012Z,23.00
2022-08-18T08:38:50.818Z,23.00
2022-08-18T08:41:31.708Z,23.00
2022-08-18T08:44:17.238Z,23.00
2022-08-18T08:46:55.570Z,23.00
2022-08-18T08:49:31.929Z,23.00
2022-08-18T08:52:06.761Z,23.00
2022-08-18T08:54:44.683Z,23.20
2022-08-18T08:57:17.628Z,23.20
2022-08-18T08:59:48.650Z,23.30
2022-08-18T09:02:48.637Z,23.40
2022-08-18T09:05:57.036Z,23.60
2022-08-18T09:08:53.525Z,23.60
2022-08-18T09:11:47.028Z,23.70
2022-08-18T09:15:01.149Z,23.60
2022-08-18T09:17:53.848Z,23.60
2022-08-18T09:20:51.634Z,23.70
2022-08-18T09:23:23.892Z,23.80
2022-08-18T09:25:54.464Z,23.90
2022-08-18T09:28:40.677Z,23.90
2022-08-18T09:31:20.010Z,23.90
2022-08-18T09:34:10.632Z,24.20
2022-08-18T09:37:00.253Z,24.00
2022-08-18T09:39:54.521Z,23.90
2022-08-18T09:45:58.334Z,23.70
2022-08-18T09:50:37.216Z,23.60
2022-08-18T09:50:37.387Z,23.90
2022-08-18T09:51:40.007Z,23.50
2022-08-18T09:54:26.075Z,23.60
2022-08-18T09:57:24.414Z,23.70
2022-08-18T10:00:24.277Z,23.80
2022-08-18T10:03:32.257Z,24.00
2022-08-18T10:06:19.218Z,24.00
2022-08-18T10:09:38.025Z,24.10
2022-08-18T10:12:29.623Z,24.30
2022-08-18T10:15:33.965Z,24.20
2022-08-18T10:18:22.041Z,24.30
2022-08-18T10:20:58.916Z,24.20
2022-08-18T10:24:14.658Z,24.30
2022-08-18T10:31:10.089Z,24.50
2022-08-18T10:34:19.491Z,24.90
2022-08-18T10:36:51.746Z,25.10
2022-08-18T10:39:23.380Z,25.20
2022-08-18T10:42:07.950Z,25.10
2022-08-18T10:44:47.559Z,25.10
2022-08-18T10:47:33.168Z,25.00
2022-08-18T10:50:11.223Z,24.90
2022-08-18T10:53:24.205Z,24.90
2022-08-18T10:56:06.186Z,25.10
2022-08-18T10:58:59.862Z,25.40
2022-08-18T11:01:46.475Z,25.50
2022-08-18T11:04:34.703Z,25.70
2022-08-18T11:07:23.107Z,25.70
2022-08-18T11:13:08.778Z,25.90
2022-08-18T11:15:48.941Z,26.10
2022-08-18T11:18:42.676Z,26.10
2022-08-18T11:21:41.737Z,26.10
2022-08-18T11:24:18.718Z,26.00
2022-08-18T11:29:39.908Z,25.80
2022-08-18T11:32:19.734Z,25.90
2022-08-18T11:34:54.156Z,25.80
2022-08-18T11:37:27.343Z,25.70
2022-08-18T11:40:06.452Z,25.70
2022-08-18T11:42:59.433Z,25.90
2022-08-18T11:45:32.828Z,26.20
2022-08-18T11:48:12.413Z,26.40
2022-08-18T11:50:54.621Z,26.60
2022-08-18T11:53:26.633Z,26.80
2022-08-18T11:56:21.277Z,26.80
2022-08-18T11:59:09.121Z,26.90
2022-08-18T12:02:03.834Z,27.20
2022-08-18T12:04:41.916Z,27.40
2022-08-18T12:10:25.732Z,27.50
2022-08-18T12:13:03.160Z,27.50
2022-08-18T12:15:43.920Z,27.50
2022-08-18T12:18:28.822Z,27.40
2022-08-18T12:20:59.369Z,27.70
2022-08-18T12:23:52.111Z,27.60
2022-08-18T12:28:34.231Z,27.80
2022-08-18T12:29:55.618Z,28.10
2022-08-18T12:32:56.091Z,27.80
2022-08-18T12:35:54.800Z,27.40
2022-08-18T12:38:29.996Z,27.40
2022-08-18T12:41:36.130Z,27.60
2022-08-18T12:44:10.055Z,27.50
2022-08-18T12:47:06.438Z,27.40
2022-08-18T12:49:39.625Z,27.30
2022-08-18T12:52:17.272Z,27.30
2022-08-18T12:54:59.646Z,27.30
2022-08-18T12:57:52.079Z,27.50
2022-08-18T13:00:28.931Z,27.80
2022-08-18T13:03:03.729Z,28.00
2022-08-18T13:05:38.413Z,28.00
2022-08-18T13:08:27.702Z,28.00
2022-08-18T13:11:14.810Z,28.00
2022-08-18T13:14:00.995Z,28.30
2022-08-18T13:16:53.821Z,28.30
2022-08-18T13:19:25.777Z,28.40
2022-08-18T13:22:00.737Z,28.60
2022-08-18T13:24:31.457Z,28.50
2022-08-18T13:27:04.249Z,28.60
2022-08-18T13:29:48.498Z,28.50
2022-08-18T13:32:19.828Z,28.60
2022-08-18T13:35:08.991Z,28.40
2022-08-18T13:37:46.406Z,28.00
2022-08-18T13:40:17.483Z,27.80
2022-08-18T13:42:50.643Z,27.50
2022-08-18T13:45:25.678Z,27.40
2022-08-18T13:47:54.469Z,27.30
2022-08-18T13:50:29.679Z,27.20
2022-08-18T13:53:01.045Z,27.20
2022-08-18T13:55:30.175Z,27.10
2022-08-18T13:58:02.082Z,27.00
2022-08-18T14:00:35.137Z,27.00
2022-08-18T14:03:03.708Z,26.90
2022-08-18T14:05:36.629Z,26.70
2022-08-18T14:08:20.110Z,26.60
2022-08-18T14:10:51.628Z,26.30
2022-08-18T14:13:25.076Z,26.20
2022-08-18T14:15:59.316Z,26.10
2022-08-18T14:18:31.125Z,26.10
2022-08-18T14:21:23.058Z,26.20
2022-08-18T14:24:14.180Z,26.30
2022-08-18T14:26:51.728Z,26.30
2022-08-18T14:29:46.269Z,26.40
2022-08-18T14:32:13.225Z,26.40
2022-08-18T14:34:50.676Z,26.40
2022-08-18T14:37:28.726Z,26.50
2022-08-18T14:40:01.282Z,26.50
2022-08-18T14:42:41.867Z,26.40
2022-08-18T14:45:31.285Z,26.30
2022-08-18T14:48:10.967Z,26.30
2022-08-18T14:50:49.081Z,26.10
2022-08-18T14:53:20.251Z,26.00
2022-08-18T14:55:52.034Z,25.80
2022-08-18T14:58:20.922Z,25.90
2022-08-18T15:00:53.800Z,25.90
2022-08-18T15:03:28.305Z,25.80
2022-08-18T15:06:17.069Z,25.70
2022-08-18T15:08:51.360Z,25.80
2022-08-18T15:11:23.329Z,25.70
2022-08-18T15:13:55.173Z,25.70
2022-08-18T15:16:31.650Z,25.60
2022-08-18T15:19:03.280Z,25.70
2022-08-18T15:22:17.218Z,25.70
2022-08-18T15:25:06.433Z,25.70
2022-08-18T15:27:43.242Z,25.70
2022-08-18T15:30:19.369Z,25.70
2022-08-18T15:32:53.221Z,25.80
2022-08-18T15:35:41.581Z,25.80
2022-08-18T15:38:35.586Z,25.70
2022-08-18T15:41:14.412Z,25.80
2022-08-18T15:43:48.092Z,25.90
2022-08-18T15:46:17.597Z,25.80
2022-08-18T15:48:45.870Z,25.80
2022-08-18T15:51:18.380Z,25.90
2022-08-18T15:53:51.744Z,25.90
2022-08-18T15:56:26.170Z,25.90
2022-08-18T15:58:54.382Z,25.90
2022-08-18T16:01:32.451Z,26.10
2022-08-18T16:04:11.426Z,26.00
2022-08-18T16:06:52.535Z,26.10
2022-08-18T16:10:13.870Z,26.10
2022-08-18T16:12:46.450Z,26.10
2022-08-18T16:15:30.899Z,26.30
2022-08-18T16:17:59.781Z,26.60
2022-08-18T16:20:29.447Z,26.50
2022-08-18T16:23:05.494Z,26.60
2022-08-18T16:25:41.438Z,26.70
2022-08-18T16:28:20.060Z,26.70
2022-08-18T16:30:48.569Z,27.00
2022-08-18T16:33:16.860Z,27.10
2022-08-18T16:35:47.619Z,27.10
2022-08-18T16:38:17.317Z,27.20
2022-08-18T16:40:45.492Z,27.00
2022-08-18T16:43:14.902Z,27.10
2022-08-18T16:45:43.518Z,27.20
2022-08-18T16:48:16.724Z,27.00
2022-08-18T16:50:46.270Z,27.00
2022-08-18T16:53:14.267Z,27.00
2022-08-18T16:55:45.850Z,27.20
2022-08-18T16:58:31.803Z,27.20
2022-08-18T17:01:19.138Z,27.10
2022-08-18T17:04:05.040Z,27.10
2022-08-18T17:06:47.334Z,27.20
2022-08-18T17:09:16.653Z,27.10
2022-08-18T17:11:48.127Z,27.00
2022-08-18T17:14:21.000Z,27.10
2022-08-18T17:16:54.462Z,27.10
2022-08-18T17:19:24.130Z,27.10
2022-08-18T17:21:52.294Z,27.20
2022-08-18T17:24:31.389Z,27.20
2022-08-18T17:27:15.653Z,27.10
2022-08-18T17:30:00.538Z,27.10
2022-08-18T17:32:32.570Z,27.00
2022-08-18T17:35:07.741Z,27.10
2022-08-18T17:37:37.493Z,27.30
2022-08-18T17:40:12.295Z,27.40
2022-08-18T17:42:41.755Z,27.40
2022-08-18T17:45:21.698Z,27.40
2022-08-18T17:47:57.691Z,27.20
2022-08-18T17:50:46.771Z,27.10
2022-08-18T17:53:15.721Z,27.10
2022-08-18T17:55:48.476Z,27.10
2022-08-18T17:58:22.109Z,27.10
2022-08-18T18:00:50.111Z,27.00
2022-08-18T18:03:18.648Z,26.80
2022-08-18T18:05:52.670Z,26.70
2022-08-18T18:08:20.675Z,26.70
2022-08-18T18:11:07.643Z,26.50
2022-08-18T18:13:38.484Z,26.40
2022-08-18T18:16:24.538Z,26.20
2022-08-18T18:19:01.258Z,26.10
2022-08-18T18:22:00.356Z,26.20
2022-08-18T18:24:23.915Z,26.10
2022-08-18T18:26:53.287Z,26.00
2022-08-18T18:29:31.574Z,25.70
2022-08-18T18:32:05.772Z,25.70
2022-08-18T18:34:39.579Z,25.50
2022-08-18T18:37:26.172Z,25.30
2022-08-18T18:39:58.987Z,25.20
2022-08-18T18:42:30.247Z,25.00
2022-08-18T18:45:01.420Z,25.00
2022-08-18T18:47:47.303Z,24.90
2022-08-18T18:50:24.017Z,25.00
2022-08-18T18:53:04.134Z,24.70
2022-08-18T18:55:42.900Z,24.70
2022-08-18T18:58:21.475Z,24.50
2022-08-18T19:00:56.145Z,24.40
2022-08-18T19:03:29.391Z,24.30
2022-08-18T19:06:14.378Z,24.20
2022-08-18T19:08:54.157Z,24.10
2022-08-18T19:11:30.453Z,24.20
2022-08-18T19:14:07.573Z,24.20
2022-08-18T19:16:42.031Z,24.20
2022-08-18T19:19:37.488Z,24.00
2022-08-18T19:22:11.455Z,24.00
2022-08-18T19:24:48.244Z,24.00
2022-08-18T19:27:25.423Z,24.00
2022-08-18T19:29:58.118Z,24.00
2022-08-18T19:32:36.597Z,24.00
2022-08-18T19:35:12.234Z,24.00
2022-08-18T19:38:01.956Z,24.00
2022-08-18T19:40:40.356Z,23.80
2022-08-18T19:43:13.688Z,23.80
2022-08-18T19:45:50.263Z,23.70
2022-08-18T19:48:27.340Z,23.70
2022-08-18T19:50:58.835Z,23.60
2022-08-18T19:53:57.002Z,23.50
2022-08-18T19:56:53.352Z,23.50
2022-08-18T19:59:39.770Z,23.50
2022-08-18T20:02:26.380Z,23.50
2022-08-18T20:05:42.815Z,23.60
2022-08-18T20:09:07.781Z,23.60
2022-08-18T20:12:26.231Z,23.60
2022-08-18T20:15:32.762Z,23.50
2022-08-18T20:18:09.696Z,23.50
2022-08-18T20:20:40.258Z,23.40
2022-08-18T20:23:41.294Z,23.40
2022-08-18T20:26:51.844Z,23.30
2022-08-18T20:29:52.220Z,23.30
2022-08-18T20:33:03.475Z,23.20
2022-08-18T20:36:03.808Z,23.20
2022-08-18T20:38:38.760Z,23.20
2022-08-18T20:41:54.913Z,23.10
2022-08-18T20:45:10.405Z,23.10
2022-08-18T20:47:58.120Z,23.10
2022-08-18T20:51:05.140Z,23.00
2022-08-18T20:54:34.740Z,23.00
2022-08-18T20:57:22.883Z,22.90
2022-08-18T21:00:12.061Z,22.80
2022-08-18T21:05:45.509Z,22.70
2022-08-18T21:08:33.518Z,22.70
2022-08-18T21:11:08.124Z,22.70
2022-08-18T21:13:40.938Z,22.60
2022-08-18T21:16:38.666Z,22.60
2022-08-18T21:19:16.871Z,22.60
2022-08-18T21:22:00.984Z,22.60
2022-08-18T21:24:42.664Z,22.50
2022-08-18T21:27:27.862Z,22.50
2022-08-18T21:30:13.138Z,22.40
2022-08-18T21:32:42.238Z,22.30
2022-08-18T21:38:20.115Z,22.10
2022-08-18T21:40:53.754Z,22.00
2022-08-18T21:43:56.355Z,21.90
2022-08-18T21:46:30.802Z,21.80
2022-08-18T21:49:12.046Z,21.80
2022-08-18T21:51:48.778Z,21.80
2022-08-18T21:54:19.254Z,21.70
2022-08-18T21:56:50.897Z,21.70
2022-08-18T21:59:25.236Z,21.70
2022-08-18T22:02:02.339Z,21.80
2022-08-18T22:04:37.445Z,21.50
2022-08-18T22:07:34.134Z,21.70
2022-08-18T22:10:45.641Z,21.60
2022-08-18T22:13:39.181Z,21.60
2022-08-18T22:16:34.107Z,21.60
2022-08-18T22:19:14.677Z,21.60
2022-08-18T22:21:52.453Z,21.50
2022-08-18T22:24:25.796Z,21.40
2022-08-18T22:27:08.112Z,21.40
2022-08-18T22:30:04.178Z,21.40
2022-08-18T22:32:57.389Z,21.30
2022-08-18T22:35:40.661Z,21.40
2022-08-18T22:38:31.738Z,21.10
2022-08-18T22:41:06.788Z,21.10
2022-08-18T22:43:37.658Z,21.10
2022-08-18T22:46:09.935Z,21.10
2022-08-18T22:48:41.668Z,21.00
2022-08-18T22:51:10.469Z,21.10
2022-08-18T22:53:47.418Z,21.10
2022-08-18T22:56:21.873Z,21.10
2022-08-18T22:59:15.776Z,21.10
2022-08-18T23:01:51.684Z,21.10
2022-08-18T23:04:22.502Z,21.10
2022-08-18T23:06:56.414Z,21.10
2022-08-18T23:09:26.753Z,21.10
2022-08-18T23:11:59.639Z,21.20
2022-08-18T23:14:31.068Z,21.00
2022-08-18T23:17:03.644Z,20.90
2022-08-18T23:19:35.508Z,20.80
2022-08-18T23:22:10.502Z,20.80
2022-08-18T23:24:39.253Z,20.70
2022-08-18T23:27:09.451Z,20.90
2022-08-18T23:29:39.981Z,20.80
2022-08-18T23:32:16.604Z,20.70
2022-08-18T23:35:08.850Z,20.80
2022-08-18T23:37:39.726Z,20.70
2022-08-18T23:40:13.453Z,20.70
2022-08-18T23:42:41.729Z,20.70
2022-08-18T23:45:13.590Z,20.50
2022-08-18T23:47:44.813Z,20.50
2022-08-18T23:50:31.620Z,20.50
2022-08-18T23:53:04.808Z,20.40
2022-08-18T23:55:33.922Z,20.50
2022-08-18T23:58:07.044Z,20.50
